Time,TemperatureF,DewpointF,PressureIn,WindDirection,WindDirectionDegrees,WindSpeedMPH,WindSpeedGustMPH,Humidity,HourlyPrecipIn,Conditions,Clouds,dailyrainin,SoftwareType,DateUTC
2013-06-14 00:01:00,77.5,67.8,29.88,SW,225,0.0,0.0,72,0.00,,---,0.00,VWS V13.01,2013-06-14 04:01:00,
2013-06-14 00:06:00,77.4,67.6,29.88,SW,225,0.0,0.0,72,0.00,,---,0.00,VWS V13.01,2013-06-14 04:06:00,
2013-06-14 00:11:00,77.5,67.8,29.88,SW,225,0.0,0.0,72,0.00,,---,0.00,VWS V13.01,2013-06-14 04:11:00,
2013-06-14 00:16:00,77.5,67.8,29.88,SW,225,0.0,0.0,72,0.00,,---,0.00,VWS V13.01,2013-06-14 04:16:00,
2013-06-14 00:21:00,77.5,67.8,29.88,SW,225,0.0,0.0,72,0.00,,---,0.00,VWS V13.01,2013-06-14 04:21:00,
2013-06-14 00:26:00,77.5,67.8,29.88,SW,225,0.0,0.0,72,0.00,,---,0.00,VWS V13.01,2013-06-14 04:26:00,
2013-06-14 00:31:00,77.4,67.6,29.89,SW,225,0.0,0.0,72,0.00,,---,0.00,VWS V13.01,2013-06-14 04:31:00,
2013-06-14 00:36:00,77.4,67.6,29.88,SW,225,0.0,0.0,72,0.00,,---,0.00,VWS V13.01,2013-06-14 04:36:00,
2013-06-14 00:41:00,77.4,67.6,29.88,SW,225,0.0,0.0,72,0.00,,---,0.00,VWS V13.01,2013-06-14 04:41:00,
2013-06-14 00:46:00,77.4,68.0,29.88,SW,225,0.0,0.0,73,0.00,,---,0.00,VWS V13.01,2013-06-14 04:46:00,
2013-06-14 00:51:00,77.2,67.9,29.88,SW,225,0.0,0.0,73,0.00,,---,0.00,VWS V13.01,2013-06-14 04:51:00,
2013-06-14 00:56:00,77.4,68.0,29.88,SW,225,0.0,0.0,73,0.00,,---,0.00,VWS V13.01,2013-06-14 04:56:00,
2013-06-14 01:01:00,77.2,67.9,29.88,SW,225,0.0,0.0,73,0.00,,---,0.00,VWS V13.01,2013-06-14 05:01:00,
2013-06-14 01:06:00,77.2,67.9,29.88,SW,225,0.0,0.0,73,0.00,,---,0.00,VWS V13.01,2013-06-14 05:06:00,
2013-06-14 01:11:00,76.8,67.5,29.88,SW,225,0.0,0.0,73,0.00,,---,0.00,VWS V13.01,2013-06-14 05:11:00,
2013-06-14 01:16:00,76.8,67.5,29.88,SW,225,0.0,0.0,73,0.00,,---,0.00,VWS V13.01,2013-06-14 05:16:00,
2013-06-14 01:21:00,76.8,67.9,29.87,SW,225,0.0,0.0,74,0.00,,---,0.00,VWS V13.01,2013-06-14 05:21:00,
2013-06-14 01:26:00,76.8,67.9,29.87,SW,225,0.0,0.0,74,0.00,,---,0.00,VWS V13.01,2013-06-14 05:26:00,
2013-06-14 01:31:00,76.8,67.9,29.87,SW,225,0.0,0.0,74,0.00,,---,0.00,VWS V13.01,2013-06-14 05:31:00,
2013-06-14 01:36:00,76.8,67.9,29.87,SW,225,0.0,0.0,74,0.00,,---,0.00,VWS V13.01,2013-06-14 05:36:00,
2013-06-14 01:41:00,76.6,67.7,29.87,SW,225,0.0,0.0,74,0.00,,---,0.00,VWS V13.01,2013-06-14 05:41:00,
2013-06-14 01:46:00,76.6,67.7,29.87,SW,225,0.0,0.0,74,0.00,,---,0.00,VWS V13.01,2013-06-14 05:46:00,
2013-06-14 01:51:00,76.6,67.7,29.87,SW,225,0.0,0.0,74,0.00,,---,0.00,VWS V13.01,2013-06-14 05:51:00,
2013-06-14 01:56:00,76.6,67.7,29.87,SW,225,0.0,0.0,74,0.00,,---,0.00,VWS V13.01,2013-06-14 05:56:00,
2013-06-14 02:01:00,76.6,68.1,29.87,SW,225,0.0,0.0,75,0.00,,---,0.00,VWS V13.01,2013-06-14 06:01:00,
2013-06-14 02:06:00,76.8,68.3,29.87,SW,225,0.0,0.0,75,0.00,,---,0.00,VWS V13.01,2013-06-14 06:06:00,
2013-06-14 02:11:00,76.8,68.3,29.87,SW,225,0.0,0.0,75,0.00,,---,0.00,VWS V13.01,2013-06-14 06:11:00,
2013-06-14 02:16:00,77.2,68.7,29.87,SW,225,0.0,0.0,75,0.00,,---,0.00,VWS V13.01,2013-06-14 06:16:00,
2013-06-14 02:21:00,77.2,68.7,29.86,SW,225,0.0,0.0,75,0.00,,---,0.00,VWS V13.01,2013-06-14 06:21:00,
2013-06-14 02:26:00,77.2,68.7,29.87,SW,225,0.0,0.0,75,0.00,,---,0.00,VWS V13.01,2013-06-14 06:26:00,
2013-06-14 02:31:00,77.2,68.7,29.87,SW,225,0.0,0.0,75,0.00,,---,0.00,VWS V13.01,2013-06-14 06:31:00,
2013-06-14 02:36:00,77.2,69.0,29.86,SW,225,0.0,0.0,76,0.00,,---,0.00,VWS V13.01,2013-06-14 06:36:00,
2013-06-14 02:41:00,77.2,69.0,29.86,SW,225,0.0,0.0,76,0.00,,---,0.00,VWS V13.01,2013-06-14 06:41:00,
2013-06-14 02:46:00,77.2,69.0,29.86,SW,225,0.0,0.0,76,0.00,,---,0.00,VWS V13.01,2013-06-14 06:46:00,
2013-06-14 02:51:00,77.0,68.9,29.86,SW,225,0.0,0.0,76,0.00,,---,0.00,VWS V13.01,2013-06-14 06:51:00,
2013-06-14 02:56:00,77.0,68.9,29.86,SW,225,0.0,0.0,76,0.00,,---,0.00,VWS V13.01,2013-06-14 06:56:00,
2013-06-14 03:01:00,76.8,68.7,29.86,SW,225,0.0,0.0,76,0.00,,---,0.00,VWS V13.01,2013-06-14 07:01:00,
2013-06-14 03:06:00,76.6,68.5,29.85,SW,225,0.0,0.0,76,0.00,,---,0.00,VWS V13.01,2013-06-14 07:06:00,
2013-06-14 03:11:00,76.6,68.5,29.85,SW,225,0.0,0.0,76,0.00,,---,0.00,VWS V13.01,2013-06-14 07:11:00,
2013-06-14 03:16:00,76.5,68.7,29.85,SW,225,0.0,0.0,77,0.00,,---,0.00,VWS V13.01,2013-06-14 07:16:00,
2013-06-14 03:21:00,76.5,68.7,29.85,SW,225,0.0,0.0,77,0.00,,---,0.00,VWS V13.01,2013-06-14 07:21:00,
2013-06-14 03:26:00,76.5,68.7,29.85,SW,225,0.0,0.0,77,0.00,,---,0.00,VWS V13.01,2013-06-14 07:26:00,
2013-06-14 03:31:00,76.5,68.7,29.85,SW,225,0.0,0.0,77,0.00,,---,0.00,VWS V13.01,2013-06-14 07:31:00,
2013-06-14 03:36:00,76.3,68.6,29.85,SW,225,0.0,0.0,77,0.00,,---,0.00,VWS V13.01,2013-06-14 07:36:00,
2013-06-14 03:41:00,76.5,68.7,29.84,SW,225,0.0,0.0,77,0.00,,---,0.00,VWS V13.01,2013-06-14 07:41:00,
2013-06-14 03:46:00,76.3,68.6,29.84,SW,225,0.0,0.0,77,0.00,,---,0.00,VWS V13.01,2013-06-14 07:46:00,
2013-06-14 03:51:00,76.1,68.4,29.84,SW,225,0.0,0.0,77,0.00,,---,0.00,VWS V13.01,2013-06-14 07:51:00,
2013-06-14 03:56:00,76.1,68.4,29.84,SW,225,0.0,0.0,77,0.00,,---,0.00,VWS V13.01,2013-06-14 07:56:00,
2013-06-14 04:01:00,76.1,68.4,29.84,SW,225,0.0,0.0,77,0.00,,---,0.00,VWS V13.01,2013-06-14 08:01:00,
2013-06-14 04:06:00,75.9,68.6,29.84,SW,225,0.0,0.0,78,0.00,,---,0.00,VWS V13.01,2013-06-14 08:06:00,
2013-06-14 04:11:00,75.9,68.9,29.84,SW,225,0.0,0.0,79,0.00,,---,0.00,VWS V13.01,2013-06-14 08:11:00,
2013-06-14 04:16:00,75.9,68.9,29.84,SW,225,0.0,0.0,79,0.00,,---,0.00,VWS V13.01,2013-06-14 08:16:00,
2013-06-14 04:21:00,75.9,68.9,29.83,SW,225,0.0,0.0,79,0.00,,---,0.00,VWS V13.01,2013-06-14 08:21:00,
2013-06-14 04:26:00,75.9,68.9,29.83,SW,225,0.0,0.0,79,0.00,,---,0.00,VWS V13.01,2013-06-14 08:26:00,
2013-06-14 04:31:00,75.7,68.8,29.83,SW,225,0.0,0.0,79,0.00,,---,0.00,VWS V13.01,2013-06-14 08:31:00,
2013-06-14 04:36:00,75.9,68.9,29.83,SW,225,0.0,0.0,79,0.00,,---,0.00,VWS V13.01,2013-06-14 08:36:00,
2013-06-14 04:41:00,75.6,68.6,29.83,SW,225,0.0,0.0,79,0.00,,---,0.00,VWS V13.01,2013-06-14 08:41:00,
2013-06-14 04:46:00,75.6,68.6,29.83,SW,225,0.0,0.0,79,0.00,,---,0.00,VWS V13.01,2013-06-14 08:46:00,
2013-06-14 04:51:00,75.6,68.6,29.82,SW,225,0.0,0.0,79,0.00,,---,0.00,VWS V13.01,2013-06-14 08:51:00,
2013-06-14 04:56:00,75.4,68.4,29.82,SW,225,0.0,0.0,79,0.00,,---,0.00,VWS V13.01,2013-06-14 08:56:00,
2013-06-14 05:01:00,75.4,68.4,29.82,SW,225,0.0,0.0,79,0.00,,---,0.00,VWS V13.01,2013-06-14 09:01:00,
2013-06-14 05:06:00,75.4,68.8,29.82,SW,225,0.0,0.0,80,0.00,,---,0.00,VWS V13.01,2013-06-14 09:06:00,
2013-06-14 05:11:00,75.4,68.8,29.82,SW,225,0.0,0.0,80,0.00,,---,0.00,VWS V13.01,2013-06-14 09:11:00,
2013-06-14 05:16:00,75.4,68.8,29.82,SW,225,0.0,0.0,80,0.00,,---,0.00,VWS V13.01,2013-06-14 09:16:00,
2013-06-14 05:21:00,75.4,68.8,29.82,SW,225,0.0,0.0,80,0.00,,---,0.00,VWS V13.01,2013-06-14 09:21:00,
2013-06-14 05:26:00,75.2,68.6,29.82,SW,225,0.0,0.0,80,0.00,,---,0.00,VWS V13.01,2013-06-14 09:26:00,
2013-06-14 05:31:00,75.2,68.6,29.82,SW,225,0.0,0.0,80,0.00,,---,0.00,VWS V13.01,2013-06-14 09:31:00,
2013-06-14 05:36:00,75.0,68.4,29.82,SW,225,0.0,0.0,80,0.00,,---,0.00,VWS V13.01,2013-06-14 09:36:00,
2013-06-14 05:41:00,75.0,68.4,29.82,SW,225,0.0,0.0,80,0.00,,---,0.00,VWS V13.01,2013-06-14 09:41:00,
2013-06-14 05:46:00,74.8,68.3,29.82,SW,225,0.0,0.0,80,0.00,,---,0.00,VWS V13.01,2013-06-14 09:46:00,
2013-06-14 05:51:00,74.8,68.3,29.82,SW,225,0.0,0.0,80,0.00,,---,0.00,VWS V13.01,2013-06-14 09:51:00,
2013-06-14 05:56:00,74.8,68.3,29.82,SW,225,0.0,0.0,80,0.00,,---,0.00,VWS V13.01,2013-06-14 09:56:00,
2013-06-14 06:01:00,74.8,68.3,29.82,SW,225,0.0,0.0,80,0.00,,---,0.00,VWS V13.01,2013-06-14 10:01:00,
2013-06-14 06:06:00,74.8,68.3,29.82,SW,225,0.0,0.0,80,0.00,,---,0.00,VWS V13.01,2013-06-14 10:06:00,
2013-06-14 06:11:00,74.7,68.4,29.82,SW,225,0.0,0.0,81,0.00,,---,0.00,VWS V13.01,2013-06-14 10:11:00,
2013-06-14 06:16:00,74.8,68.6,29.82,SW,225,0.0,0.0,81,0.00,,---,0.00,VWS V13.01,2013-06-14 10:16:00,
2013-06-14 06:21:00,74.8,68.6,29.83,SW,225,0.0,0.0,81,0.00,,---,0.00,VWS V13.01,2013-06-14 10:21:00,
2013-06-14 06:26:00,74.7,68.4,29.83,SW,225,0.0,0.0,81,0.00,,---,0.00,VWS V13.01,2013-06-14 10:26:00,
2013-06-14 06:31:00,74.8,68.6,29.83,SW,225,0.0,0.0,81,0.00,,---,0.00,VWS V13.01,2013-06-14 10:31:00,
2013-06-14 06:36:00,74.8,68.6,29.83,SW,225,0.0,0.0,81,0.00,,---,0.00,VWS V13.01,2013-06-14 10:36:00,
2013-06-14 06:41:00,74.7,68.4,29.83,SW,225,0.0,0.0,81,0.00,,---,0.00,VWS V13.01,2013-06-14 10:41:00,
2013-06-14 06:46:00,74.8,68.6,29.84,SW,225,0.0,0.0,81,0.00,,---,0.00,VWS V13.01,2013-06-14 10:46:00,
2013-06-14 06:51:00,75.4,69.5,29.83,SW,225,0.0,0.0,82,0.00,,---,0.00,VWS V13.01,2013-06-14 10:51:00,
2013-06-14 06:56:00,76.1,70.6,29.83,SW,225,0.0,0.0,83,0.00,,---,0.00,VWS V13.01,2013-06-14 10:56:00,
2013-06-14 07:01:00,77.2,71.6,29.83,SW,225,0.0,0.0,83,0.00,,---,0.00,VWS V13.01,2013-06-14 11:01:00,
2013-06-14 07:06:00,79.2,73.6,29.84,SW,225,0.0,0.0,83,0.00,,---,0.00,VWS V13.01,2013-06-14 11:06:00,
2013-06-14 07:11:00,81.3,74.9,29.83,SW,225,0.0,0.0,81,0.00,,---,0.00,VWS V13.01,2013-06-14 11:11:00,
2013-06-14 07:16:00,83.3,75.7,29.84,SW,225,0.0,0.0,78,0.00,,---,0.00,VWS V13.01,2013-06-14 11:16:00,
2013-06-14 07:21:00,85.6,75.2,29.84,SW,225,0.0,0.0,71,0.00,,---,0.00,VWS V13.01,2013-06-14 11:21:00,
2013-06-14 07:26:00,87.3,74.1,29.84,SW,225,0.0,0.0,65,0.00,,---,0.00,VWS V13.01,2013-06-14 11:26:00,
2013-06-14 07:31:00,89.1,72.9,29.84,SW,225,0.0,0.0,59,0.00,,---,0.00,VWS V13.01,2013-06-14 11:31:00,
2013-06-14 07:36:00,90.5,72.7,29.84,SW,225,0.0,0.0,56,0.00,,---,0.00,VWS V13.01,2013-06-14 11:36:00,
2013-06-14 07:41:00,91.6,72.0,29.84,West,270,0.0,0.0,53,0.00,,---,0.00,VWS V13.01,2013-06-14 11:41:00,
2013-06-14 07:46:00,92.1,71.4,29.84,West,270,0.0,0.0,51,0.00,,---,0.00,VWS V13.01,2013-06-14 11:46:00,
2013-06-14 07:51:00,93.0,71.1,29.84,West,270,0.0,0.0,49,0.00,,---,0.00,VWS V13.01,2013-06-14 11:51:00,
2013-06-14 07:56:00,94.1,70.2,29.84,West,270,0.0,0.0,46,0.00,,---,0.00,VWS V13.01,2013-06-14 11:56:00,
2013-06-14 08:01:00,95.4,70.7,29.84,West,270,0.0,0.0,45,0.00,,---,0.00,VWS V13.01,2013-06-14 12:01:00,
2013-06-14 08:05:00,96.3,70.1,29.84,West,270,0.0,0.0,43,0.00,,---,0.00,VWS V13.01,2013-06-14 12:05:00,
2013-06-14 08:11:00,96.4,68.9,29.84,South,180,0.0,0.0,41,0.00,,---,0.00,VWS V13.01,2013-06-14 12:11:00,
2013-06-14 08:16:00,97.2,69.6,29.84,SW,225,0.0,0.0,41,0.00,,---,0.00,VWS V13.01,2013-06-14 12:16:00,
2013-06-14 08:21:00,98.1,69.6,29.84,WSW,248,0.0,0.0,40,0.00,,---,0.00,VWS V13.01,2013-06-14 12:21:00,
2013-06-14 08:26:00,98.2,69.1,29.84,SSW,202,1.6,1.6,39,0.00,,---,0.00,VWS V13.01,2013-06-14 12:26:00,
2013-06-14 08:31:00,99.0,69.7,29.84,SW,225,0.0,1.6,39,0.00,,---,0.00,VWS V13.01,2013-06-14 12:31:00,
2013-06-14 08:36:00,99.5,68.6,29.84,WSW,248,0.0,1.6,37,0.00,,---,0.00,VWS V13.01,2013-06-14 12:36:00,
2013-06-14 08:41:00,99.0,68.2,29.85,SSW,202,0.0,1.6,37,0.00,,---,0.00,VWS V13.01,2013-06-14 12:41:00,
2013-06-14 08:46:00,98.6,68.6,29.85,SW,225,0.0,1.6,38,0.00,,---,0.00,VWS V13.01,2013-06-14 12:46:00,
2013-06-14 08:50:00,98.2,68.3,29.85,West,270,0.0,1.6,38,0.00,,---,0.00,VWS V13.01,2013-06-14 12:50:00,
2013-06-14 08:55:00,96.4,66.7,29.85,West,270,0.0,1.6,38,0.00,,---,0.00,VWS V13.01,2013-06-14 12:55:00,
2013-06-14 09:00:00,94.1,66.1,29.85,West,270,0.0,0.0,40,0.00,,---,0.00,VWS V13.01,2013-06-14 13:00:00,
2013-06-14 09:05:00,92.1,66.4,29.85,West,270,0.0,0.0,43,0.00,,---,0.00,VWS V13.01,2013-06-14 13:05:00,
2013-06-14 09:10:00,90.9,67.2,29.84,West,270,0.0,0.0,46,0.00,,---,0.00,VWS V13.01,2013-06-14 13:10:00,
2013-06-14 09:15:00,90.3,67.4,29.85,West,270,0.0,0.0,47,0.00,,---,0.00,VWS V13.01,2013-06-14 13:15:00,
2013-06-14 09:20:00,89.4,67.8,29.85,SW,225,0.0,0.9,49,0.00,,---,0.00,VWS V13.01,2013-06-14 13:20:00,
2013-06-14 09:25:00,89.1,68.0,29.85,SW,225,1.8,1.8,50,0.00,,---,0.00,VWS V13.01,2013-06-14 13:25:00,
2013-06-14 09:30:00,89.1,68.6,29.85,NNW,338,0.0,1.8,51,0.00,,---,0.00,VWS V13.01,2013-06-14 13:30:00,
2013-06-14 09:35:00,88.7,68.3,29.86,West,270,0.0,1.8,51,0.00,,---,0.00,VWS V13.01,2013-06-14 13:35:00,
2013-06-14 09:40:00,88.7,68.8,29.85,WNW,292,0.0,4.9,52,0.00,,---,0.00,VWS V13.01,2013-06-14 13:40:00,
2013-06-14 09:45:00,88.7,68.8,29.86,West,270,0.0,4.9,52,0.00,,---,0.00,VWS V13.01,2013-06-14 13:45:00,
2013-06-14 09:50:00,88.7,68.3,29.86,West,270,0.0,5.6,51,0.00,,---,0.00,VWS V13.01,2013-06-14 13:50:00,
2013-06-14 09:55:00,88.7,68.3,29.86,WNW,292,0.0,7.6,51,0.00,,---,0.00,VWS V13.01,2013-06-14 13:55:00,
2013-06-14 10:00:00,89.1,69.2,29.86,SSW,202,0.0,1.6,52,0.00,,---,0.00,VWS V13.01,2013-06-14 14:00:00,
2013-06-14 10:05:00,89.4,68.9,29.86,West,270,0.0,2.7,51,0.00,,---,0.00,VWS V13.01,2013-06-14 14:05:00,
2013-06-14 10:10:00,89.1,68.6,29.86,WNW,292,0.0,2.7,51,0.00,,---,0.00,VWS V13.01,2013-06-14 14:10:00,
2013-06-14 10:15:00,89.2,68.2,29.86,SW,225,0.0,5.1,50,0.00,,---,0.00,VWS V13.01,2013-06-14 14:15:00,
2013-06-14 10:20:00,90.0,69.4,29.86,NNW,338,2.9,5.1,51,0.00,,---,0.00,VWS V13.01,2013-06-14 14:20:00,
2013-06-14 10:25:00,89.4,67.8,29.86,West,270,0.2,5.1,49,0.00,,---,0.00,VWS V13.01,2013-06-14 14:25:00,
2013-06-14 10:30:00,89.2,67.6,29.86,West,270,0.0,5.6,49,0.00,,---,0.00,VWS V13.01,2013-06-14 14:30:00,
2013-06-14 10:35:00,89.4,67.8,29.86,WNW,292,0.0,5.6,49,0.00,,---,0.00,VWS V13.01,2013-06-14 14:35:00,
2013-06-14 10:40:00,89.8,68.7,29.86,WSW,248,4.7,5.6,50,0.00,,---,0.00,VWS V13.01,2013-06-14 14:40:00,
2013-06-14 10:45:00,90.1,69.0,29.86,SSW,202,0.0,5.6,50,0.00,,---,0.00,VWS V13.01,2013-06-14 14:45:00,
2013-06-14 10:50:00,90.7,68.9,29.86,NW,315,1.8,5.6,49,0.00,,---,0.00,VWS V13.01,2013-06-14 14:50:00,
2013-06-14 10:55:00,90.5,68.2,29.86,West,270,0.0,5.6,48,0.00,,---,0.00,VWS V13.01,2013-06-14 14:55:00,
2013-06-14 11:00:00,90.9,69.1,29.86,SW,225,2.9,2.9,49,0.00,,---,0.00,VWS V13.01,2013-06-14 15:00:00,
2013-06-14 11:05:00,91.0,69.2,29.86,WNW,292,0.0,3.1,49,0.00,,---,0.00,VWS V13.01,2013-06-14 15:05:00,
2013-06-14 11:10:00,91.6,69.7,29.86,NW,315,0.0,3.1,49,0.00,,---,0.00,VWS V13.01,2013-06-14 15:10:00,
2013-06-14 11:15:00,90.9,67.9,29.86,West,270,0.0,4.3,47,0.00,,---,0.00,VWS V13.01,2013-06-14 15:15:00,
2013-06-14 11:20:00,91.0,69.2,29.86,West,270,0.0,4.3,49,0.00,,---,0.00,VWS V13.01,2013-06-14 15:20:00,
2013-06-14 11:25:00,91.6,69.1,29.86,WNW,292,0.0,6.3,48,0.00,,---,0.00,VWS V13.01,2013-06-14 15:25:00,
2013-06-14 11:30:00,91.6,67.9,29.86,WNW,292,1.1,6.3,46,0.00,,---,0.00,VWS V13.01,2013-06-14 15:30:00,
2013-06-14 11:35:00,91.8,68.1,29.86,West,270,0.0,6.3,46,0.00,,---,0.00,VWS V13.01,2013-06-14 15:35:00,
2013-06-14 11:40:00,92.1,68.4,29.86,SW,225,3.8,6.3,46,0.00,,---,0.00,VWS V13.01,2013-06-14 15:40:00,
2013-06-14 11:45:00,92.1,67.7,29.86,WNW,292,4.5,6.3,45,0.00,,---,0.00,VWS V13.01,2013-06-14 15:45:00,
2013-06-14 11:50:00,92.1,67.1,29.86,WNW,292,0.0,6.3,44,0.00,,---,0.00,VWS V13.01,2013-06-14 15:50:00,
2013-06-14 11:55:00,91.9,66.9,29.86,West,270,0.0,6.3,44,0.00,,---,0.00,VWS V13.01,2013-06-14 15:55:00,
2013-06-14 12:00:00,92.3,67.2,29.86,NNW,338,2.7,6.0,44,0.00,,---,0.00,VWS V13.01,2013-06-14 16:00:00,
2013-06-14 12:05:00,92.5,67.4,29.86,West,270,0.0,6.0,44,0.00,,---,0.00,VWS V13.01,2013-06-14 16:05:00,
2013-06-14 12:10:00,92.8,67.7,29.86,SW,225,0.0,6.0,44,0.00,,---,0.00,VWS V13.01,2013-06-14 16:10:00,
2013-06-14 12:15:00,92.7,67.6,29.85,WNW,292,0.0,6.0,44,0.00,,---,0.00,VWS V13.01,2013-06-14 16:15:00,
2013-06-14 12:20:00,92.5,66.8,29.85,SW,225,0.0,6.0,43,0.00,,---,0.00,VWS V13.01,2013-06-14 16:20:00,
2013-06-14 12:25:00,92.3,66.6,29.85,WNW,292,0.0,6.0,43,0.00,,---,0.00,VWS V13.01,2013-06-14 16:25:00,
2013-06-14 12:30:00,92.3,66.6,29.85,SSW,202,1.3,6.0,43,0.00,,---,0.00,VWS V13.01,2013-06-14 16:30:00,
2013-06-14 12:35:00,92.8,67.1,29.85,WSW,248,0.0,6.0,43,0.00,,---,0.00,VWS V13.01,2013-06-14 16:35:00,
2013-06-14 12:40:00,93.0,66.6,29.85,NNW,338,0.0,6.0,42,0.00,,---,0.00,VWS V13.01,2013-06-14 16:40:00,
2013-06-14 12:45:00,92.8,66.4,29.85,West,270,2.0,6.0,42,0.00,,---,0.00,VWS V13.01,2013-06-14 16:45:00,
2013-06-14 12:50:00,92.8,66.4,29.85,West,270,0.0,6.0,42,0.00,,---,0.00,VWS V13.01,2013-06-14 16:50:00,
2013-06-14 12:55:00,93.0,67.2,29.85,West,270,0.0,6.0,43,0.00,,---,0.00,VWS V13.01,2013-06-14 16:55:00,
2013-06-14 13:00:00,93.2,66.0,29.85,West,270,0.0,0.0,41,0.00,,---,0.00,VWS V13.01,2013-06-14 17:00:00,
2013-06-14 13:05:00,93.4,66.9,29.85,West,270,0.0,2.0,42,0.00,,---,0.00,VWS V13.01,2013-06-14 17:05:00,
2013-06-14 13:10:00,93.9,67.4,29.84,West,270,0.0,3.4,42,0.00,,---,0.00,VWS V13.01,2013-06-14 17:10:00,
2013-06-14 13:15:00,93.7,65.8,29.84,West,270,0.0,5.6,40,0.00,,---,0.00,VWS V13.01,2013-06-14 17:15:00,
2013-06-14 13:20:00,94.3,67.0,29.84,WNW,292,0.0,5.6,41,0.00,,---,0.00,VWS V13.01,2013-06-14 17:20:00,
2013-06-14 13:25:00,94.6,66.6,29.85,SW,225,0.0,5.6,40,0.00,,---,0.00,VWS V13.01,2013-06-14 17:25:00,
2013-06-14 13:30:00,94.8,66.8,29.84,WNW,292,0.0,5.6,40,0.00,,---,0.00,VWS V13.01,2013-06-14 17:30:00,
2013-06-14 13:35:00,94.5,64.9,29.84,NNW,338,5.4,6.5,38,0.00,,---,0.00,VWS V13.01,2013-06-14 17:35:00,
2013-06-14 13:40:00,94.6,65.9,29.83,WSW,248,0.0,6.5,39,0.00,,---,0.00,VWS V13.01,2013-06-14 17:40:00,
2013-06-14 13:45:00,95.0,66.9,29.83,SW,225,0.0,6.5,40,0.00,,---,0.00,VWS V13.01,2013-06-14 17:45:00,
2013-06-14 13:50:00,95.4,67.9,29.83,NNW,338,0.9,6.5,41,0.00,,---,0.00,VWS V13.01,2013-06-14 17:50:00,
2013-06-14 13:55:00,95.4,65.8,29.84,WSW,248,1.1,6.5,38,0.00,,---,0.00,VWS V13.01,2013-06-14 17:55:00,
2013-06-14 14:00:00,94.6,65.1,29.83,WNW,292,1.8,1.8,38,0.00,,---,0.00,VWS V13.01,2013-06-14 18:00:00,
2013-06-14 14:05:00,94.5,64.9,29.83,West,270,4.9,6.3,38,0.00,,---,0.00,VWS V13.01,2013-06-14 18:05:00,
2013-06-14 14:10:00,94.5,64.9,29.83,West,270,0.0,6.7,38,0.00,,---,0.00,VWS V13.01,2013-06-14 18:10:00,
2013-06-14 14:15:00,94.8,66.0,29.83,West,270,0.0,6.7,39,0.00,,---,0.00,VWS V13.01,2013-06-14 18:15:00,
2013-06-14 14:20:00,95.0,66.2,29.82,West,270,0.0,6.7,39,0.00,,---,0.00,VWS V13.01,2013-06-14 18:20:00,
2013-06-14 14:25:00,95.4,66.5,29.82,SW,225,2.9,6.7,39,0.00,,---,0.00,VWS V13.01,2013-06-14 18:25:00,
2013-06-14 14:30:00,95.7,66.1,29.81,WSW,248,2.7,6.7,38,0.00,,---,0.00,VWS V13.01,2013-06-14 18:30:00,
2013-06-14 14:35:00,96.3,66.6,29.81,West,270,0.0,6.7,38,0.00,,---,0.00,VWS V13.01,2013-06-14 18:35:00,
2013-06-14 14:40:00,96.4,65.9,29.81,West,270,0.0,6.7,37,0.00,,---,0.00,VWS V13.01,2013-06-14 18:40:00,
2013-06-14 14:45:00,95.9,64.7,29.81,SW,225,0.0,6.7,36,0.00,,---,0.00,VWS V13.01,2013-06-14 18:45:00,
2013-06-14 14:50:00,95.5,65.1,29.81,NW,315,1.8,6.7,37,0.00,,---,0.00,VWS V13.01,2013-06-14 18:50:00,
2013-06-14 14:55:00,95.5,65.1,29.81,NW,315,2.9,6.7,37,0.00,,---,0.00,VWS V13.01,2013-06-14 18:55:00,
2013-06-14 15:00:00,95.4,65.0,29.81,WSW,248,2.2,6.7,37,0.00,,---,0.00,VWS V13.01,2013-06-14 19:00:00,
2013-06-14 15:05:00,95.4,65.0,29.81,West,270,0.0,7.4,37,0.00,,---,0.00,VWS V13.01,2013-06-14 19:05:00,
2013-06-14 15:10:00,96.4,65.9,29.81,WNW,292,4.7,7.4,37,0.00,,---,0.00,VWS V13.01,2013-06-14 19:10:00,
2013-06-14 15:15:00,96.4,64.3,29.80,NNW,338,0.0,7.4,35,0.00,,---,0.00,VWS V13.01,2013-06-14 19:15:00,
2013-06-14 15:20:00,95.4,64.2,29.80,NW,315,0.0,7.4,36,0.00,,---,0.00,VWS V13.01,2013-06-14 19:20:00,
2013-06-14 15:24:00,95.9,63.9,29.80,NW,315,0.0,7.4,35,0.00,,---,0.00,VWS V13.01,2013-06-14 19:24:00,
2013-06-14 15:30:00,95.9,63.9,29.80,West,270,0.0,7.4,35,0.00,,---,0.00,VWS V13.01,2013-06-14 19:30:00,
2013-06-14 15:34:00,95.9,63.9,29.80,WNW,292,1.1,7.4,35,0.00,,---,0.00,VWS V13.01,2013-06-14 19:34:00,
2013-06-14 15:39:00,96.4,65.2,29.80,WSW,248,0.0,8.1,36,0.00,,---,0.00,VWS V13.01,2013-06-14 19:39:00,
2013-06-14 15:44:00,97.0,64.0,29.80,NNW,338,0.0,8.1,34,0.00,,---,0.00,VWS V13.01,2013-06-14 19:44:00,
2013-06-14 15:49:00,97.0,64.0,29.80,NW,315,0.4,8.3,34,0.00,,---,0.00,VWS V13.01,2013-06-14 19:49:00,
2013-06-14 15:54:00,97.5,64.4,29.80,WNW,292,0.0,8.3,34,0.00,,---,0.00,VWS V13.01,2013-06-14 19:54:00,
2013-06-14 15:59:00,97.0,63.1,29.80,WNW,292,0.0,8.3,33,0.00,,---,0.00,VWS V13.01,2013-06-14 19:59:00,
2013-06-14 16:04:00,96.4,63.5,29.80,NW,315,0.0,0.0,34,0.00,,---,0.00,VWS V13.01,2013-06-14 20:04:00,
2013-06-14 16:09:00,96.1,63.2,29.80,NNW,338,0.0,4.0,34,0.00,,---,0.00,VWS V13.01,2013-06-14 20:09:00,
2013-06-14 16:14:00,95.7,64.5,29.80,North,0,0.0,4.3,36,0.00,,---,0.00,VWS V13.01,2013-06-14 20:14:00,
2013-06-14 16:19:00,95.4,65.0,29.80,West,270,0.0,4.3,37,0.00,,---,0.00,VWS V13.01,2013-06-14 20:19:00,
2013-06-14 16:24:00,95.4,65.0,29.80,SSW,202,0.0,4.3,37,0.00,,---,0.00,VWS V13.01,2013-06-14 20:24:00,
2013-06-14 16:29:00,95.5,65.9,29.80,South,180,1.3,4.3,38,0.00,,---,0.00,VWS V13.01,2013-06-14 20:29:00,
2013-06-14 16:34:00,95.4,65.8,29.80,West,270,0.0,4.3,38,0.00,,---,0.00,VWS V13.01,2013-06-14 20:34:00,
2013-06-14 16:39:00,95.5,65.1,29.80,WNW,292,1.3,4.3,37,0.00,,---,0.00,VWS V13.01,2013-06-14 20:39:00,
2013-06-14 16:44:00,95.2,64.0,29.80,WNW,292,1.1,5.8,36,0.00,,---,0.00,VWS V13.01,2013-06-14 20:44:00,
2013-06-14 16:49:00,94.6,65.1,29.80,NNW,338,0.0,5.8,38,0.00,,---,0.00,VWS V13.01,2013-06-14 20:49:00,
2013-06-14 16:54:00,94.1,63.9,29.80,WNW,292,0.0,5.8,37,0.00,,---,0.00,VWS V13.01,2013-06-14 20:54:00,
2013-06-14 16:59:00,93.6,64.9,29.81,SE,135,1.8,5.8,39,0.00,,---,0.00,VWS V13.01,2013-06-14 20:59:00,
2013-06-14 17:04:00,92.3,63.8,29.80,SSE,158,0.0,7.4,39,0.00,,---,0.00,VWS V13.01,2013-06-14 21:04:00,
2013-06-14 17:09:00,90.9,62.5,29.80,SE,135,2.9,7.4,39,0.00,,---,0.00,VWS V13.01,2013-06-14 21:09:00,
2013-06-14 17:14:00,90.0,64.5,29.80,SSE,158,0.0,7.4,43,0.00,,---,0.00,VWS V13.01,2013-06-14 21:14:00,
2013-06-14 17:19:00,89.1,65.0,29.80,SSE,158,0.0,7.4,45,0.00,,---,0.00,VWS V13.01,2013-06-14 21:19:00,
2013-06-14 17:24:00,88.7,65.9,29.80,ESE,112,0.0,7.4,47,0.00,,---,0.00,VWS V13.01,2013-06-14 21:24:00,
2013-06-14 17:29:00,88.2,66.6,29.80,ESE,112,0.0,7.4,49,0.00,,---,0.00,VWS V13.01,2013-06-14 21:29:00,
2013-06-14 17:34:00,88.0,67.0,29.80,WNW,292,0.0,7.4,50,0.00,,---,0.00,VWS V13.01,2013-06-14 21:34:00,
2013-06-14 17:39:00,87.6,66.7,29.81,West,270,5.6,7.8,50,0.00,,---,0.00,VWS V13.01,2013-06-14 21:39:00,
2013-06-14 17:44:00,86.2,66.5,29.82,SW,225,0.0,7.8,52,0.08,,---,0.08,VWS V13.01,2013-06-14 21:44:00,
2013-06-14 17:49:00,83.8,64.3,29.83,NW,315,0.0,7.8,52,0.14,,---,0.14,VWS V13.01,2013-06-14 21:49:00,
2013-06-14 17:54:00,82.4,63.6,29.83,ESE,112,0.0,7.8,53,0.20,,---,0.20,VWS V13.01,2013-06-14 21:54:00,
2013-06-14 17:59:00,81.0,63.3,29.81,ENE,68,0.0,9.6,55,0.22,,---,0.22,VWS V13.01,2013-06-14 21:59:00,
2013-06-14 18:04:00,81.0,64.3,29.81,ESE,112,0.0,0.0,57,0.24,,---,0.24,VWS V13.01,2013-06-14 22:04:00,
2013-06-14 18:09:00,81.3,65.6,29.81,ESE,112,0.0,0.0,59,0.26,,---,0.26,VWS V13.01,2013-06-14 22:09:00,
2013-06-14 18:14:00,82.0,67.3,29.81,ESE,112,0.0,0.0,61,0.26,,---,0.26,VWS V13.01,2013-06-14 22:14:00,
2013-06-14 18:19:00,82.2,67.4,29.81,South,180,0.0,0.0,61,0.26,,---,0.26,VWS V13.01,2013-06-14 22:19:00,
2013-06-14 18:24:00,82.8,68.4,29.81,SSE,158,0.0,0.0,62,0.26,,---,0.26,VWS V13.01,2013-06-14 22:24:00,
2013-06-14 18:29:00,83.1,68.8,29.81,South,180,0.0,0.0,62,0.26,,---,0.26,VWS V13.01,2013-06-14 22:29:00,
2013-06-14 18:34:00,83.3,68.5,29.81,South,180,0.0,0.0,61,0.26,,---,0.26,VWS V13.01,2013-06-14 22:34:00,
2013-06-14 18:39:00,83.5,69.1,29.82,SE,135,0.0,0.0,62,0.26,,---,0.26,VWS V13.01,2013-06-14 22:39:00,
2013-06-14 18:44:00,83.3,68.9,29.83,West,270,0.0,0.0,62,0.12,,---,0.26,VWS V13.01,2013-06-14 22:44:00,
2013-06-14 18:49:00,83.3,68.9,29.83,West,270,0.0,0.0,62,0.08,,---,0.26,VWS V13.01,2013-06-14 22:49:00,
2013-06-14 18:54:00,82.8,69.3,29.83,West,270,0.0,9.6,64,0.06,,---,0.26,VWS V13.01,2013-06-14 22:54:00,
2013-06-14 18:59:00,81.7,66.9,29.83,WNW,292,1.3,10.7,61,0.04,,---,0.26,VWS V13.01,2013-06-14 22:59:00,
2013-06-14 19:04:00,81.3,66.6,29.83,WSW,248,0.0,6.9,61,0.00,,---,0.26,VWS V13.01,2013-06-14 23:04:00,
2013-06-14 19:09:00,80.8,65.6,29.83,SSW,202,0.0,6.9,60,0.00,,---,0.26,VWS V13.01,2013-06-14 23:09:00,
2013-06-14 19:14:00,80.6,65.0,29.82,WNW,292,0.0,6.9,59,0.00,,---,0.26,VWS V13.01,2013-06-14 23:14:00,
2013-06-14 19:19:00,80.4,65.3,29.82,SW,225,0.0,6.9,60,0.00,,---,0.26,VWS V13.01,2013-06-14 23:19:00,
2013-06-14 19:24:00,80.1,64.9,29.82,West,270,1.3,6.9,60,0.00,,---,0.26,VWS V13.01,2013-06-14 23:24:00,
2013-06-14 19:29:00,79.7,65.1,29.82,West,270,0.0,9.6,61,0.00,,---,0.26,VWS V13.01,2013-06-14 23:29:00,
2013-06-14 19:34:00,79.9,65.7,29.83,SSW,202,0.0,9.6,62,0.00,,---,0.26,VWS V13.01,2013-06-14 23:34:00,
2013-06-14 19:39:00,80.2,66.5,29.83,SSW,202,0.0,9.6,63,0.00,,---,0.26,VWS V13.01,2013-06-14 23:39:00,
2013-06-14 19:44:00,80.2,66.5,29.83,SSW,202,0.0,9.6,63,0.00,,---,0.26,VWS V13.01,2013-06-14 23:44:00,
2013-06-14 19:49:00,80.6,66.8,29.83,SSW,202,0.0,9.6,63,0.00,,---,0.26,VWS V13.01,2013-06-14 23:49:00,
2013-06-14 19:54:00,80.8,67.0,29.83,SSW,202,0.0,9.6,63,0.00,,---,0.26,VWS V13.01,2013-06-14 23:54:00,
2013-06-14 19:59:00,80.8,67.0,29.84,SSW,202,0.0,9.6,63,0.00,,---,0.26,VWS V13.01,2013-06-14 23:59:00,
2013-06-14 20:04:00,80.8,67.0,29.84,SSE,158,0.0,0.0,63,0.00,,---,0.26,VWS V13.01,2013-06-15 00:04:00,
2013-06-14 20:09:00,80.6,66.8,29.84,SE,135,0.0,0.0,63,0.00,,---,0.26,VWS V13.01,2013-06-15 00:09:00,
2013-06-14 20:14:00,80.2,66.5,29.85,SE,135,0.0,1.6,63,0.00,,---,0.26,VWS V13.01,2013-06-15 00:14:00,
2013-06-14 20:19:00,80.1,66.3,29.85,SSE,158,0.0,1.6,63,0.00,,---,0.26,VWS V13.01,2013-06-15 00:19:00,
2013-06-14 20:24:00,79.5,65.8,29.85,SSE,158,0.0,1.6,63,0.00,,---,0.26,VWS V13.01,2013-06-15 00:24:00,
2013-06-14 20:29:00,79.5,66.7,29.85,SE,135,0.0,1.6,65,0.00,,---,0.26,VWS V13.01,2013-06-15 00:29:00,
2013-06-14 20:34:00,79.2,66.4,29.84,SE,135,0.0,1.6,65,0.00,,---,0.26,VWS V13.01,2013-06-15 00:34:00,
2013-06-14 20:39:00,79.2,66.4,29.84,South,180,0.0,1.6,65,0.00,,---,0.26,VWS V13.01,2013-06-15 00:39:00,
2013-06-14 20:44:00,79.0,66.2,29.84,SE,135,0.0,1.6,65,0.00,,---,0.26,VWS V13.01,2013-06-15 00:44:00,
2013-06-14 20:49:00,78.8,66.1,29.84,South,180,0.0,1.6,65,0.00,,---,0.26,VWS V13.01,2013-06-15 00:49:00,
2013-06-14 20:54:00,78.6,65.9,29.84,South,180,0.0,1.6,65,0.00,,---,0.26,VWS V13.01,2013-06-15 00:54:00,
2013-06-14 20:59:00,78.6,65.9,29.84,South,180,0.0,1.6,65,0.00,,---,0.26,VWS V13.01,2013-06-15 00:59:00,
2013-06-14 21:04:00,78.6,65.9,29.84,SSE,158,0.0,0.0,65,0.00,,---,0.26,VWS V13.01,2013-06-15 01:04:00,
2013-06-14 21:09:00,78.6,65.9,29.84,SSE,158,0.0,0.0,65,0.00,,---,0.26,VWS V13.01,2013-06-15 01:09:00,
2013-06-14 21:14:00,78.4,66.2,29.84,SSE,158,0.0,0.0,66,0.00,,---,0.26,VWS V13.01,2013-06-15 01:14:00,
2013-06-14 21:19:00,78.6,66.8,29.84,SSE,158,0.0,0.0,67,0.00,,---,0.26,VWS V13.01,2013-06-15 01:19:00,
2013-06-14 21:24:00,78.6,66.8,29.84,SSE,158,0.0,0.0,67,0.00,,---,0.26,VWS V13.01,2013-06-15 01:24:00,
2013-06-14 21:29:00,78.4,66.6,29.84,SSE,158,0.0,0.0,67,0.00,,---,0.26,VWS V13.01,2013-06-15 01:29:00,
2013-06-14 21:34:00,78.6,67.2,29.84,SSE,158,0.0,0.0,68,0.00,,---,0.26,VWS V13.01,2013-06-15 01:34:00,
2013-06-14 21:39:00,78.6,67.6,29.84,South,180,0.0,0.0,69,0.00,,---,0.26,VWS V13.01,2013-06-15 01:39:00,
2013-06-14 21:44:00,78.4,67.4,29.85,South,180,0.0,0.0,69,0.00,,---,0.26,VWS V13.01,2013-06-15 01:44:00,
2013-06-14 21:49:00,78.6,67.6,29.85,South,180,0.0,0.0,69,0.00,,---,0.26,VWS V13.01,2013-06-15 01:49:00,
2013-06-14 21:54:00,78.6,68.0,29.86,South,180,0.0,0.0,70,0.00,,---,0.26,VWS V13.01,2013-06-15 01:54:00,
2013-06-14 21:59:00,78.6,68.0,29.86,South,180,0.0,0.0,70,0.00,,---,0.26,VWS V13.01,2013-06-15 01:59:00,
2013-06-14 22:04:00,78.8,68.2,29.86,South,180,0.0,0.0,70,0.00,,---,0.26,VWS V13.01,2013-06-15 02:04:00,
2013-06-14 22:09:00,78.6,68.0,29.86,South,180,0.0,0.0,70,0.00,,---,0.26,VWS V13.01,2013-06-15 02:09:00,
2013-06-14 22:14:00,78.8,68.2,29.87,South,180,0.0,0.0,70,0.00,,---,0.26,VWS V13.01,2013-06-15 02:14:00,
2013-06-14 22:19:00,79.0,68.8,29.87,South,180,0.0,0.0,71,0.00,,---,0.26,VWS V13.01,2013-06-15 02:19:00,
2013-06-14 22:24:00,78.8,68.6,29.87,South,180,0.0,0.0,71,0.00,,---,0.26,VWS V13.01,2013-06-15 02:24:00,
2013-06-14 22:29:00,78.8,68.6,29.87,South,180,0.0,0.0,71,0.00,,---,0.26,VWS V13.01,2013-06-15 02:29:00,
2013-06-14 22:34:00,78.8,68.6,29.86,South,180,0.0,0.0,71,0.00,,---,0.26,VWS V13.01,2013-06-15 02:34:00,
2013-06-14 22:39:00,78.6,68.4,29.86,South,180,0.0,0.0,71,0.00,,---,0.26,VWS V13.01,2013-06-15 02:39:00,
2013-06-14 22:44:00,78.8,68.6,29.86,South,180,0.0,0.0,71,0.00,,---,0.26,VWS V13.01,2013-06-15 02:44:00,
2013-06-14 22:49:00,78.6,68.4,29.86,South,180,0.0,0.0,71,0.00,,---,0.26,VWS V13.01,2013-06-15 02:49:00,
2013-06-14 22:54:00,78.6,68.4,29.86,South,180,0.0,0.0,71,0.00,,---,0.26,VWS V13.01,2013-06-15 02:54:00,
2013-06-14 22:59:00,78.4,68.7,29.86,South,180,0.0,0.0,72,0.00,,---,0.26,VWS V13.01,2013-06-15 02:59:00,
2013-06-14 23:04:00,78.4,68.7,29.86,South,180,0.0,0.0,72,0.00,,---,0.26,VWS V13.01,2013-06-15 03:04:00,
2013-06-14 23:09:00,78.4,68.7,29.86,South,180,0.0,0.0,72,0.00,,---,0.26,VWS V13.01,2013-06-15 03:09:00,
2013-06-14 23:14:00,78.3,68.5,29.86,South,180,0.0,0.0,72,0.00,,---,0.26,VWS V13.01,2013-06-15 03:14:00,
2013-06-14 23:19:00,78.3,68.9,29.86,South,180,0.0,0.0,73,0.00,,---,0.26,VWS V13.01,2013-06-15 03:19:00,
2013-06-14 23:24:00,78.3,68.9,29.87,South,180,0.0,0.0,73,0.00,,---,0.26,VWS V13.01,2013-06-15 03:24:00,
2013-06-14 23:29:00,78.3,68.9,29.87,South,180,0.0,0.0,73,0.00,,---,0.26,VWS V13.01,2013-06-15 03:29:00,
2013-06-14 23:34:00,78.3,68.9,29.87,South,180,0.0,0.0,73,0.00,,---,0.26,VWS V13.01,2013-06-15 03:34:00,
2013-06-14 23:39:00,78.1,68.7,29.87,South,180,0.0,0.0,73,0.00,,---,0.26,VWS V13.01,2013-06-15 03:39:00,
2013-06-14 23:44:00,78.1,68.7,29.86,South,180,0.0,0.0,73,0.00,,---,0.26,VWS V13.01,2013-06-15 03:44:00,
2013-06-14 23:49:00,78.1,68.7,29.87,South,180,0.0,0.0,73,0.00,,---,0.26,VWS V13.01,2013-06-15 03:49:00,
2013-06-14 23:54:00,77.9,68.6,29.87,South,180,0.0,0.0,73,0.00,,---,0.26,VWS V13.01,2013-06-15 03:54:00,
2013-06-14 23:59:00,77.9,68.6,29.87,South,180,0.0,0.0,73,0.00,,---,0.26,VWS V13.01,2013-06-15 03:59:00,